sensor_id;sensor_type;location;lat;lon;timestamp;P1;durP1;ratioP1;P2;durP2;ratioP2
9304;SDS011;4690;52.422;13.486;2023-04-03T00:04:23;5.47;;;2.43;;
9304;SDS011;4690;52.422;13.486;2023-04-03T00:06:49;6.93;;;2.47;;
9304;SDS011;4690;52.422;13.486;2023-04-03T00:09:15;6.70;;;2.80;;
9304;SDS011;4690;52.422;13.486;2023-04-03T00:11:41;5.73;;;2.43;;
9304;SDS011;4690;52.422;13.486;2023-04-03T00:14:06;5.83;;;2.43;;
9304;SDS011;4690;52.422;13.486;2023-04-03T00:16:32;7.20;;;2.40;;
9304;SDS011;4690;52.422;13.486;2023-04-03T00:18:58;4.37;;;2.50;;
9304;SDS011;4690;52.422;13.486;2023-04-03T00:21:23;4.53;;;2.17;;
9304;SDS011;4690;52.422;13.486;2023-04-03T00:23:49;5.77;;;2.60;;
9304;SDS011;4690;52.422;13.486;2023-04-03T00:26:16;5.50;;;2.30;;
9304;SDS011;4690;52.422;13.486;2023-04-03T00:28:41;7.40;;;2.47;;
9304;SDS011;4690;52.422;13.486;2023-04-03T00:31:07;5.50;;;2.70;;
9304;SDS011;4690;52.422;13.486;2023-04-03T00:33:33;5.13;;;2.47;;
9304;SDS011;4690;52.422;13.486;2023-04-03T00:35:59;4.30;;;2.13;;
9304;SDS011;4690;52.422;13.486;2023-04-03T00:38:24;7.07;;;2.67;;
9304;SDS011;4690;52.422;13.486;2023-04-03T00:40:50;4.77;;;2.27;;
9304;SDS011;4690;52.422;13.486;2023-04-03T00:43:21;6.10;;;2.27;;
9304;SDS011;4690;52.422;13.486;2023-04-03T00:45:54;7.17;;;2.70;;
9304;SDS011;4690;52.422;13.486;2023-04-03T00:48:28;4.20;;;2.13;;
9304;SDS011;4690;52.422;13.486;2023-04-03T00:50:59;5.63;;;2.20;;
9304;SDS011;4690;52.422;13.486;2023-04-03T00:53:37;6.33;;;2.37;;
9304;SDS011;4690;52.422;13.486;2023-04-03T00:56:26;7.73;;;2.80;;
9304;SDS011;4690;52.422;13.486;2023-04-03T00:58:56;7.13;;;2.83;;
9304;SDS011;4690;52.422;13.486;2023-04-03T01:01:35;4.57;;;2.30;;
9304;SDS011;4690;52.422;13.486;2023-04-03T01:04:03;5.47;;;2.17;;
9304;SDS011;4690;52.422;13.486;2023-04-03T01:06:35;4.33;;;2.20;;
9304;SDS011;4690;52.422;13.486;2023-04-03T01:09:02;6.93;;;2.33;;
9304;SDS011;4690;52.422;13.486;2023-04-03T01:11:29;6.67;;;2.37;;
9304;SDS011;4690;52.422;13.486;2023-04-03T01:13:55;5.60;;;2.30;;
9304;SDS011;4690;52.422;13.486;2023-04-03T01:16:21;4.83;;;2.30;;
9304;SDS011;4690;52.422;13.486;2023-04-03T01:18:47;5.00;;;2.33;;
9304;SDS011;4690;52.422;13.486;2023-04-03T01:24:33;6.00;;;2.30;;
9304;SDS011;4690;52.422;13.486;2023-04-03T01:27:04;6.73;;;2.60;;
9304;SDS011;4690;52.422;13.486;2023-04-03T01:29:34;3.27;;;2.10;;
9304;SDS011;4690;52.422;13.486;2023-04-03T01:32:01;6.33;;;2.57;;
9304;SDS011;4690;52.422;13.486;2023-04-03T01:34:29;4.37;;;2.13;;
9304;SDS011;4690;52.422;13.486;2023-04-03T01:36:56;3.63;;;2.03;;
9304;SDS011;4690;52.422;13.486;2023-04-03T01:39:21;5.30;;;2.33;;
9304;SDS011;4690;52.422;13.486;2023-04-03T01:41:48;6.00;;;2.50;;
9304;SDS011;4690;52.422;13.486;2023-04-03T01:44:14;6.10;;;2.40;;
9304;SDS011;4690;52.422;13.486;2023-04-03T01:46:40;4.33;;;2.20;;
9304;SDS011;4690;52.422;13.486;2023-04-03T01:49:07;5.57;;;2.00;;
9304;SDS011;4690;52.422;13.486;2023-04-03T01:51:33;4.33;;;2.13;;
9304;SDS011;4690;52.422;13.486;2023-04-03T01:53:59;5.37;;;2.47;;
9304;SDS011;4690;52.422;13.486;2023-04-03T01:56:25;5.93;;;2.40;;
9304;SDS011;4690;52.422;13.486;2023-04-03T01:58:51;7.10;;;2.43;;
9304;SDS011;4690;52.422;13.486;2023-04-03T02:01:17;5.40;;;2.30;;
9304;SDS011;4690;52.422;13.486;2023-04-03T02:03:43;4.97;;;2.20;;
9304;SDS011;4690;52.422;13.486;2023-04-03T02:06:09;4.83;;;2.57;;
9304;SDS011;4690;52.422;13.486;2023-04-03T02:08:35;6.23;;;2.60;;
9304;SDS011;4690;52.422;13.486;2023-04-03T02:11:00;5.83;;;2.57;;
9304;SDS011;4690;52.422;13.486;2023-04-03T02:13:26;5.20;;;2.10;;
9304;SDS011;4690;52.422;13.486;2023-04-03T02:15:52;5.33;;;2.20;;
9304;SDS011;4690;52.422;13.486;2023-04-03T02:18:18;6.63;;;2.60;;
9304;SDS011;4690;52.422;13.486;2023-04-03T02:20:44;5.60;;;2.37;;
9304;SDS011;4690;52.422;13.486;2023-04-03T02:23:11;4.60;;;2.10;;
9304;SDS011;4690;52.422;13.486;2023-04-03T02:25:37;5.20;;;2.13;;
9304;SDS011;4690;52.422;13.486;2023-04-03T02:28:02;7.03;;;2.40;;
9304;SDS011;4690;52.422;13.486;2023-04-03T02:30:28;6.17;;;2.40;;
9304;SDS011;4690;52.422;13.486;2023-04-03T02:32:54;6.47;;;2.40;;
9304;SDS011;4690;52.422;13.486;2023-04-03T02:35:21;5.03;;;2.33;;
9304;SDS011;4690;52.422;13.486;2023-04-03T02:37:47;5.13;;;2.23;;
9304;SDS011;4690;52.422;13.486;2023-04-03T02:40:12;4.50;;;2.37;;
9304;SDS011;4690;52.422;13.486;2023-04-03T02:42:38;5.00;;;2.27;;
9304;SDS011;4690;52.422;13.486;2023-04-03T02:45:04;6.77;;;2.77;;
9304;SDS011;4690;52.422;13.486;2023-04-03T02:47:31;4.47;;;2.23;;
9304;SDS011;4690;52.422;13.486;2023-04-03T02:49:56;4.50;;;2.20;;
9304;SDS011;4690;52.422;13.486;2023-04-03T02:52:22;3.27;;;2.10;;
9304;SDS011;4690;52.422;13.486;2023-04-03T02:54:48;5.27;;;2.50;;
9304;SDS011;4690;52.422;13.486;2023-04-03T02:57:14;3.77;;;2.00;;
9304;SDS011;4690;52.422;13.486;2023-04-03T02:59:40;4.70;;;2.30;;
9304;SDS011;4690;52.422;13.486;2023-04-03T03:02:06;4.13;;;2.20;;
9304;SDS011;4690;52.422;13.486;2023-04-03T03:04:35;4.93;;;2.30;;
9304;SDS011;4690;52.422;13.486;2023-04-03T03:07:02;6.70;;;2.43;;
9304;SDS011;4690;52.422;13.486;2023-04-03T03:09:28;3.57;;;2.20;;
9304;SDS011;4690;52.422;13.486;2023-04-03T03:11:55;6.47;;;2.47;;
9304;SDS011;4690;52.422;13.486;2023-04-03T03:14:21;5.67;;;2.40;;
9304;SDS011;4690;52.422;13.486;2023-04-03T03:16:48;4.60;;;2.17;;
9304;SDS011;4690;52.422;13.486;2023-04-03T03:19:14;4.77;;;2.20;;
9304;SDS011;4690;52.422;13.486;2023-04-03T03:21:39;4.97;;;2.30;;
9304;SDS011;4690;52.422;13.486;2023-04-03T03:24:05;4.50;;;2.23;;
9304;SDS011;4690;52.422;13.486;2023-04-03T03:26:31;4.97;;;2.40;;
9304;SDS011;4690;52.422;13.486;2023-04-03T03:28:57;3.90;;;2.27;;
9304;SDS011;4690;52.422;13.486;2023-04-03T03:31:23;4.83;;;2.37;;
9304;SDS011;4690;52.422;13.486;2023-04-03T03:33:49;6.83;;;2.43;;
9304;SDS011;4690;52.422;13.486;2023-04-03T03:36:15;7.13;;;2.87;;
9304;SDS011;4690;52.422;13.486;2023-04-03T03:38:40;8.07;;;2.90;;
9304;SDS011;4690;52.422;13.486;2023-04-03T03:41:06;10.03;;;3.50;;
9304;SDS011;4690;52.422;13.486;2023-04-03T03:43:32;4.90;;;2.90;;
9304;SDS011;4690;52.422;13.486;2023-04-03T03:45:58;7.60;;;3.10;;
9304;SDS011;4690;52.422;13.486;2023-04-03T03:48:24;6.00;;;3.00;;
9304;SDS011;4690;52.422;13.486;2023-04-03T03:50:50;5.37;;;2.70;;
9304;SDS011;4690;52.422;13.486;2023-04-03T03:53:15;6.70;;;2.90;;
9304;SDS011;4690;52.422;13.486;2023-04-03T03:55:41;5.13;;;2.90;;
9304;SDS011;4690;52.422;13.486;2023-04-03T03:58:07;6.27;;;2.87;;
9304;SDS011;4690;52.422;13.486;2023-04-03T04:00:33;5.10;;;2.43;;
9304;SDS011;4690;52.422;13.486;2023-04-03T04:02:59;4.97;;;2.87;;
9304;SDS011;4690;52.422;13.486;2023-04-03T04:05:25;5.70;;;2.77;;
9304;SDS011;4690;52.422;13.486;2023-04-03T04:07:51;4.97;;;2.63;;
9304;SDS011;4690;52.422;13.486;2023-04-03T04:10:17;4.90;;;2.63;;
9304;SDS011;4690;52.422;13.486;2023-04-03T04:12:43;5.70;;;2.80;;
9304;SDS011;4690;52.422;13.486;2023-04-03T04:15:09;5.28;;;2.58;;
9304;SDS011;4690;52.422;13.486;2023-04-03T04:17:35;4.70;;;2.60;;
9304;SDS011;4690;52.422;13.486;2023-04-03T04:20:02;7.23;;;2.80;;
9304;SDS011;4690;52.422;13.486;2023-04-03T04:22:30;5.23;;;2.73;;
9304;SDS011;4690;52.422;13.486;2023-04-03T04:24:55;6.17;;;2.90;;
9304;SDS011;4690;52.422;13.486;2023-04-03T04:27:21;5.17;;;2.60;;
9304;SDS011;4690;52.422;13.486;2023-04-03T04:29:47;4.53;;;2.80;;
9304;SDS011;4690;52.422;13.486;2023-04-03T04:32:12;4.57;;;2.50;;
9304;SDS011;4690;52.422;13.486;2023-04-03T04:34:38;4.13;;;2.57;;
9304;SDS011;4690;52.422;13.486;2023-04-03T04:37:04;6.03;;;2.87;;
9304;SDS011;4690;52.422;13.486;2023-04-03T04:39:30;8.40;;;3.30;;
9304;SDS011;4690;52.422;13.486;2023-04-03T04:41:56;5.60;;;3.13;;
9304;SDS011;4690;52.422;13.486;2023-04-03T04:44:22;6.00;;;2.83;;
9304;SDS011;4690;52.422;13.486;2023-04-03T04:46:47;8.47;;;3.00;;
9304;SDS011;4690;52.422;13.486;2023-04-03T04:49:13;6.63;;;3.00;;
9304;SDS011;4690;52.422;13.486;2023-04-03T04:51:39;5.43;;;2.70;;
9304;SDS011;4690;52.422;13.486;2023-04-03T04:54:05;7.77;;;3.07;;
9304;SDS011;4690;52.422;13.486;2023-04-03T04:56:30;6.97;;;3.10;;
9304;SDS011;4690;52.422;13.486;2023-04-03T04:58:56;9.60;;;3.10;;
9304;SDS011;4690;52.422;13.486;2023-04-03T05:01:22;7.97;;;2.80;;
9304;SDS011;4690;52.422;13.486;2023-04-03T05:03:47;6.60;;;3.07;;
9304;SDS011;4690;52.422;13.486;2023-04-03T05:06:13;6.43;;;3.00;;
9304;SDS011;4690;52.422;13.486;2023-04-03T05:08:39;6.77;;;2.80;;
9304;SDS011;4690;52.422;13.486;2023-04-03T05:11:05;6.00;;;2.70;;
9304;SDS011;4690;52.422;13.486;2023-04-03T05:13:31;4.50;;;2.90;;
9304;SDS011;4690;52.422;13.486;2023-04-03T05:15:56;7.20;;;3.13;;
9304;SDS011;4690;52.422;13.486;2023-04-03T05:18:22;6.23;;;3.00;;
9304;SDS011;4690;52.422;13.486;2023-04-03T05:20:48;7.03;;;3.20;;
9304;SDS011;4690;52.422;13.486;2023-04-03T05:23:15;8.33;;;3.00;;
9304;SDS011;4690;52.422;13.486;2023-04-03T05:25:42;6.93;;;2.93;;
9304;SDS011;4690;52.422;13.486;2023-04-03T05:28:10;6.77;;;3.30;;
9304;SDS011;4690;52.422;13.486;2023-04-03T05:30:36;9.23;;;2.50;;
9304;SDS011;4690;52.422;13.486;2023-04-03T05:33:02;5.73;;;3.00;;
9304;SDS011;4690;52.422;13.486;2023-04-03T05:35:28;8.70;;;3.33;;
9304;SDS011;4690;52.422;13.486;2023-04-03T05:37:54;6.53;;;3.10;;
9304;SDS011;4690;52.422;13.486;2023-04-03T05:40:20;6.40;;;3.20;;
9304;SDS011;4690;52.422;13.486;2023-04-03T05:42:46;6.37;;;2.77;;
9304;SDS011;4690;52.422;13.486;2023-04-03T05:45:12;6.43;;;2.90;;
9304;SDS011;4690;52.422;13.486;2023-04-03T05:47:37;7.70;;;2.60;;
9304;SDS011;4690;52.422;13.486;2023-04-03T05:50:04;6.40;;;2.70;;
9304;SDS011;4690;52.422;13.486;2023-04-03T05:52:31;5.50;;;2.73;;
9304;SDS011;4690;52.422;13.486;2023-04-03T05:55:02;6.70;;;3.00;;
9304;SDS011;4690;52.422;13.486;2023-04-03T05:57:28;8.00;;;3.07;;
9304;SDS011;4690;52.422;13.486;2023-04-03T05:59:54;6.60;;;2.77;;
9304;SDS011;4690;52.422;13.486;2023-04-03T06:02:20;5.77;;;2.67;;
9304;SDS011;4690;52.422;13.486;2023-04-03T06:04:48;3.97;;;2.20;;
9304;SDS011;4690;52.422;13.486;2023-04-03T06:07:16;5.13;;;2.60;;
9304;SDS011;4690;52.422;13.486;2023-04-03T06:09:46;6.70;;;2.53;;
9304;SDS011;4690;52.422;13.486;2023-04-03T06:12:12;6.27;;;2.20;;
9304;SDS011;4690;52.422;13.486;2023-04-03T06:14:38;6.33;;;2.83;;
9304;SDS011;4690;52.422;13.486;2023-04-03T06:17:04;5.83;;;2.53;;
9304;SDS011;4690;52.422;13.486;2023-04-03T06:19:31;5.80;;;2.37;;
9304;SDS011;4690;52.422;13.486;2023-04-03T06:21:56;7.23;;;2.60;;
9304;SDS011;4690;52.422;13.486;2023-04-03T06:24:22;4.80;;;2.40;;
9304;SDS011;4690;52.422;13.486;2023-04-03T06:26:50;4.20;;;1.83;;
9304;SDS011;4690;52.422;13.486;2023-04-03T06:29:17;5.33;;;2.10;;
9304;SDS011;4690;52.422;13.486;2023-04-03T06:31:44;6.30;;;2.30;;
9304;SDS011;4690;52.422;13.486;2023-04-03T06:34:11;8.13;;;2.20;;
9304;SDS011;4690;52.422;13.486;2023-04-03T06:36:38;6.37;;;2.57;;
9304;SDS011;4690;52.422;13.486;2023-04-03T06:39:04;4.73;;;2.33;;
9304;SDS011;4690;52.422;13.486;2023-04-03T06:41:32;5.53;;;2.50;;
9304;SDS011;4690;52.422;13.486;2023-04-03T06:43:58;3.07;;;1.80;;
9304;SDS011;4690;52.422;13.486;2023-04-03T06:46:24;3.93;;;1.80;;
9304;SDS011;4690;52.422;13.486;2023-04-03T06:48:51;4.57;;;1.90;;
9304;SDS011;4690;52.422;13.486;2023-04-03T06:51:19;3.70;;;2.07;;
9304;SDS011;4690;52.422;13.486;2023-04-03T06:53:49;2.57;;;1.70;;
9304;SDS011;4690;52.422;13.486;2023-04-03T06:56:17;7.07;;;2.23;;
9304;SDS011;4690;52.422;13.486;2023-04-03T06:58:44;6.63;;;2.20;;
9304;SDS011;4690;52.422;13.486;2023-04-03T07:01:11;6.93;;;2.17;;
9304;SDS011;4690;52.422;13.486;2023-04-03T07:03:39;3.97;;;2.10;;
9304;SDS011;4690;52.422;13.486;2023-04-03T07:06:06;3.37;;;1.80;;
9304;SDS011;4690;52.422;13.486;2023-04-03T07:08:36;2.20;;;1.60;;
9304;SDS011;4690;52.422;13.486;2023-04-03T07:11:01;2.67;;;1.80;;
9304;SDS011;4690;52.422;13.486;2023-04-03T07:13:29;3.60;;;1.90;;
9304;SDS011;4690;52.422;13.486;2023-04-03T07:15:55;4.20;;;1.60;;
9304;SDS011;4690;52.422;13.486;2023-04-03T07:18:21;3.27;;;1.70;;
9304;SDS011;4690;52.422;13.486;2023-04-03T07:20:47;4.97;;;1.73;;
9304;SDS011;4690;52.422;13.486;2023-04-03T07:23:13;6.07;;;1.80;;
9304;SDS011;4690;52.422;13.486;2023-04-03T07:25:42;4.17;;;1.80;;
9304;SDS011;4690;52.422;13.486;2023-04-03T07:28:12;2.73;;;1.87;;
9304;SDS011;4690;52.422;13.486;2023-04-03T07:30:47;7.50;;;2.07;;
9304;SDS011;4690;52.422;13.486;2023-04-03T07:33:16;3.00;;;1.83;;
9304;SDS011;4690;52.422;13.486;2023-04-03T07:35:45;3.37;;;1.70;;
9304;SDS011;4690;52.422;13.486;2023-04-03T07:38:11;4.03;;;1.97;;
9304;SDS011;4690;52.422;13.486;2023-04-03T07:40:38;3.60;;;1.70;;
9304;SDS011;4690;52.422;13.486;2023-04-03T07:43:04;2.60;;;1.60;;
9304;SDS011;4690;52.422;13.486;2023-04-03T07:45:31;5.13;;;1.60;;
9304;SDS011;4690;52.422;13.486;2023-04-03T07:48:00;4.33;;;1.73;;
9304;SDS011;4690;52.422;13.486;2023-04-03T07:50:27;4.67;;;2.00;;
9304;SDS011;4690;52.422;13.486;2023-04-03T07:52:55;3.97;;;1.70;;
9304;SDS011;4690;52.422;13.486;2023-04-03T07:55:22;4.23;;;1.80;;
9304;SDS011;4690;52.422;13.486;2023-04-03T07:57:49;2.87;;;1.50;;
9304;SDS011;4690;52.422;13.486;2023-04-03T08:00:15;3.77;;;1.90;;
9304;SDS011;4690;52.422;13.486;2023-04-03T08:02:42;5.30;;;2.10;;
9304;SDS011;4690;52.422;13.486;2023-04-03T08:05:18;4.93;;;2.00;;
9304;SDS011;4690;52.422;13.486;2023-04-03T08:07:46;4.53;;;1.80;;
9304;SDS011;4690;52.422;13.486;2023-04-03T08:10:13;4.33;;;1.90;;
9304;SDS011;4690;52.422;13.486;2023-04-03T08:12:40;4.50;;;1.97;;
9304;SDS011;4690;52.422;13.486;2023-04-03T08:15:07;2.60;;;1.63;;
9304;SDS011;4690;52.422;13.486;2023-04-03T08:17:34;2.37;;;1.60;;
9304;SDS011;4690;52.422;13.486;2023-04-03T08:20:00;4.13;;;1.90;;
9304;SDS011;4690;52.422;13.486;2023-04-03T08:22:28;6.20;;;2.00;;
9304;SDS011;4690;52.422;13.486;2023-04-03T08:24:54;2.63;;;1.50;;
9304;SDS011;4690;52.422;13.486;2023-04-03T08:27:20;2.57;;;1.73;;
9304;SDS011;4690;52.422;13.486;2023-04-03T08:29:46;3.53;;;1.60;;
9304;SDS011;4690;52.422;13.486;2023-04-03T08:32:11;2.73;;;1.60;;
9304;SDS011;4690;52.422;13.486;2023-04-03T08:34:37;2.60;;;1.70;;
9304;SDS011;4690;52.422;13.486;2023-04-03T08:37:04;3.17;;;1.40;;
9304;SDS011;4690;52.422;13.486;2023-04-03T08:39:31;2.53;;;1.43;;
9304;SDS011;4690;52.422;13.486;2023-04-03T08:41:57;4.53;;;1.70;;
9304;SDS011;4690;52.422;13.486;2023-04-03T08:44:50;4.23;;;1.60;;
9304;SDS011;4690;52.422;13.486;2023-04-03T08:50:11;4.10;;;2.10;;
9304;SDS011;4690;52.422;13.486;2023-04-03T08:52:58;4.17;;;1.87;;
9304;SDS011;4690;52.422;13.486;2023-04-03T08:58:30;3.13;;;1.80;;
9304;SDS011;4690;52.422;13.486;2023-04-03T09:01:35;4.10;;;1.80;;
9304;SDS011;4690;52.422;13.486;2023-04-03T09:04:14;2.43;;;1.80;;
9304;SDS011;4690;52.422;13.486;2023-04-03T09:06:45;3.60;;;1.73;;
9304;SDS011;4690;52.422;13.486;2023-04-03T09:12:12;4.00;;;2.00;;
9304;SDS011;4690;52.422;13.486;2023-04-03T09:17:58;3.67;;;1.80;;
9304;SDS011;4690;52.422;13.486;2023-04-03T09:20:35;3.10;;;1.70;;
9304;SDS011;4690;52.422;13.486;2023-04-03T09:23:17;3.07;;;1.80;;
9304;SDS011;4690;52.422;13.486;2023-04-03T09:26:14;4.60;;;2.20;;
9304;SDS011;4690;52.422;13.486;2023-04-03T09:28:46;3.13;;;2.00;;
9304;SDS011;4690;52.422;13.486;2023-04-03T09:33:56;3.93;;;1.77;;
9304;SDS011;4690;52.422;13.486;2023-04-03T09:36:49;6.80;;;1.80;;
9304;SDS011;4690;52.422;13.486;2023-04-03T09:39:19;2.80;;;1.57;;
9304;SDS011;4690;52.422;13.486;2023-04-03T09:41:59;3.10;;;1.47;;
9304;SDS011;4690;52.422;13.486;2023-04-03T09:47:19;1.93;;;1.40;;
9304;SDS011;4690;52.422;13.486;2023-04-03T09:52:37;2.67;;;1.47;;
9304;SDS011;4690;52.422;13.486;2023-04-03T09:55:08;2.20;;;1.37;;
9304;SDS011;4690;52.422;13.486;2023-04-03T09:57:41;3.97;;;1.67;;
9304;SDS011;4690;52.422;13.486;2023-04-03T10:00:24;1.90;;;1.40;;
9304;SDS011;4690;52.422;13.486;2023-04-03T10:02:57;4.13;;;1.60;;
9304;SDS011;4690;52.422;13.486;2023-04-03T10:05:34;3.67;;;1.40;;
9304;SDS011;4690;52.422;13.486;2023-04-03T10:10:42;2.40;;;1.50;;
9304;SDS011;4690;52.422;13.486;2023-04-03T10:13:20;1.60;;;1.37;;
9304;SDS011;4690;52.422;13.486;2023-04-03T10:15:55;2.30;;;1.30;;
9304;SDS011;4690;52.422;13.486;2023-04-03T10:21:38;3.53;;;1.80;;
9304;SDS011;4690;52.422;13.486;2023-04-03T10:46:28;3.97;;;1.53;;
9304;SDS011;4690;52.422;13.486;2023-04-03T10:49:15;3.23;;;1.40;;
9304;SDS011;4690;52.422;13.486;2023-04-03T10:58:01;2.63;;;1.70;;
9304;SDS011;4690;52.422;13.486;2023-04-03T11:00:39;3.73;;;1.73;;
9304;SDS011;4690;52.422;13.486;2023-04-03T11:03:16;3.53;;;1.43;;
9304;SDS011;4690;52.422;13.486;2023-04-03T11:06:11;2.20;;;1.40;;
9304;SDS011;4690;52.422;13.486;2023-04-03T11:11:37;5.77;;;1.67;;
9304;SDS011;4690;52.422;13.486;2023-04-03T11:23:00;3.50;;;1.47;;
9304;SDS011;4690;52.422;13.486;2023-04-03T11:25:54;2.83;;;2.00;;
9304;SDS011;4690;52.422;13.486;2023-04-03T11:28:36;2.53;;;1.60;;
9304;SDS011;4690;52.422;13.486;2023-04-03T11:34:29;3.00;;;1.90;;
9304;SDS011;4690;52.422;13.486;2023-04-03T11:37:13;3.67;;;1.80;;
9304;SDS011;4690;52.422;13.486;2023-04-03T11:40:00;3.03;;;1.63;;
9304;SDS011;4690;52.422;13.486;2023-04-03T11:48:01;3.27;;;1.87;;
9304;SDS011;4690;52.422;13.486;2023-04-03T12:16:29;5.60;;;2.20;;
9304;SDS011;4690;52.422;13.486;2023-04-03T12:24:44;3.67;;;1.70;;
9304;SDS011;4690;52.422;13.486;2023-04-03T12:27:33;3.77;;;1.87;;
9304;SDS011;4690;52.422;13.486;2023-04-03T12:30:12;3.77;;;1.87;;
9304;SDS011;4690;52.422;13.486;2023-04-03T12:32:57;3.53;;;1.90;;
9304;SDS011;4690;52.422;13.486;2023-04-03T12:41:31;2.50;;;1.90;;
9304;SDS011;4690;52.422;13.486;2023-04-03T12:52:59;1.97;;;1.40;;
9304;SDS011;4690;52.422;13.486;2023-04-03T12:55:31;1.50;;;1.30;;
9304;SDS011;4690;52.422;13.486;2023-04-03T12:57:57;1.50;;;1.40;;
9304;SDS011;4690;52.422;13.486;2023-04-03T13:03:49;2.23;;;1.60;;
9304;SDS011;4690;52.422;13.486;2023-04-03T13:06:24;4.23;;;1.97;;
9304;SDS011;4690;52.422;13.486;2023-04-03T13:09:06;3.10;;;1.53;;
9304;SDS011;4690;52.422;13.486;2023-04-03T13:11:46;3.30;;;1.60;;
9304;SDS011;4690;52.422;13.486;2023-04-03T13:14:17;3.07;;;1.53;;
9304;SDS011;4690;52.422;13.486;2023-04-03T13:16:58;3.40;;;1.63;;
9304;SDS011;4690;52.422;13.486;2023-04-03T13:19:31;2.23;;;1.50;;
9304;SDS011;4690;52.422;13.486;2023-04-03T13:22:17;3.00;;;1.80;;
9304;SDS011;4690;52.422;13.486;2023-04-03T13:24:59;3.53;;;1.50;;
9304;SDS011;4690;52.422;13.486;2023-04-03T13:27:31;3.13;;;1.53;;
9304;SDS011;4690;52.422;13.486;2023-04-03T13:29:59;2.83;;;1.70;;
9304;SDS011;4690;52.422;13.486;2023-04-03T13:32:28;2.87;;;1.93;;
9304;SDS011;4690;52.422;13.486;2023-04-03T13:34:56;4.10;;;1.70;;
9304;SDS011;4690;52.422;13.486;2023-04-03T13:37:24;3.07;;;1.60;;
9304;SDS011;4690;52.422;13.486;2023-04-03T13:40:09;4.47;;;1.90;;
9304;SDS011;4690;52.422;13.486;2023-04-03T13:42:38;1.70;;;1.43;;
9304;SDS011;4690;52.422;13.486;2023-04-03T13:47:39;2.57;;;1.50;;
9304;SDS011;4690;52.422;13.486;2023-04-03T13:52:47;2.53;;;1.60;;
9304;SDS011;4690;52.422;13.486;2023-04-03T13:55:29;2.90;;;1.77;;
9304;SDS011;4690;52.422;13.486;2023-04-03T13:58:32;3.37;;;1.77;;
9304;SDS011;4690;52.422;13.486;2023-04-03T14:03:44;3.10;;;1.30;;
9304;SDS011;4690;52.422;13.486;2023-04-03T14:06:12;4.77;;;1.77;;
9304;SDS011;4690;52.422;13.486;2023-04-03T14:08:41;3.00;;;1.80;;
9304;SDS011;4690;52.422;13.486;2023-04-03T14:11:13;2.60;;;1.60;;
9304;SDS011;4690;52.422;13.486;2023-04-03T14:13:43;2.73;;;1.67;;
9304;SDS011;4690;52.422;13.486;2023-04-03T14:16:18;1.73;;;1.30;;
9304;SDS011;4690;52.422;13.486;2023-04-03T14:18:51;3.93;;;1.70;;
9304;SDS011;4690;52.422;13.486;2023-04-03T14:21:18;3.07;;;1.97;;
9304;SDS011;4690;52.422;13.486;2023-04-03T14:23:46;2.33;;;1.60;;
9304;SDS011;4690;52.422;13.486;2023-04-03T14:26:13;3.63;;;2.10;;
9304;SDS011;4690;52.422;13.486;2023-04-03T14:28:47;3.63;;;1.80;;
9304;SDS011;4690;52.422;13.486;2023-04-03T14:31:16;3.03;;;1.60;;
9304;SDS011;4690;52.422;13.486;2023-04-03T14:33:44;2.77;;;1.70;;
9304;SDS011;4690;52.422;13.486;2023-04-03T14:36:14;3.23;;;2.03;;
9304;SDS011;4690;52.422;13.486;2023-04-03T14:38:47;3.50;;;1.67;;
9304;SDS011;4690;52.422;13.486;2023-04-03T14:41:15;2.50;;;1.70;;
9304;SDS011;4690;52.422;13.486;2023-04-03T14:43:45;2.40;;;1.60;;
9304;SDS011;4690;52.422;13.486;2023-04-03T14:46:13;3.57;;;1.77;;
9304;SDS011;4690;52.422;13.486;2023-04-03T14:48:45;2.37;;;1.57;;
9304;SDS011;4690;52.422;13.486;2023-04-03T14:51:11;2.00;;;1.43;;
9304;SDS011;4690;52.422;13.486;2023-04-03T14:53:40;2.63;;;1.60;;
9304;SDS011;4690;52.422;13.486;2023-04-03T14:56:27;3.13;;;1.57;;
9304;SDS011;4690;52.422;13.486;2023-04-03T14:58:55;3.73;;;1.80;;
9304;SDS011;4690;52.422;13.486;2023-04-03T15:01:26;2.80;;;1.87;;
9304;SDS011;4690;52.422;13.486;2023-04-03T15:03:53;3.67;;;2.23;;
9304;SDS011;4690;52.422;13.486;2023-04-03T15:06:20;2.63;;;1.90;;
9304;SDS011;4690;52.422;13.486;2023-04-03T15:08:47;3.60;;;1.87;;
9304;SDS011;4690;52.422;13.486;2023-04-03T15:11:14;4.03;;;1.77;;
9304;SDS011;4690;52.422;13.486;2023-04-03T15:13:40;4.20;;;1.80;;
9304;SDS011;4690;52.422;13.486;2023-04-03T15:16:12;4.63;;;2.00;;
9304;SDS011;4690;52.422;13.486;2023-04-03T15:18:44;3.73;;;1.80;;
9304;SDS011;4690;52.422;13.486;2023-04-03T15:21:11;4.77;;;2.00;;
9304;SDS011;4690;52.422;13.486;2023-04-03T15:23:37;6.27;;;2.10;;
9304;SDS011;4690;52.422;13.486;2023-04-03T15:26:03;2.93;;;1.80;;
9304;SDS011;4690;52.422;13.486;2023-04-03T15:28:31;3.80;;;1.73;;
9304;SDS011;4690;52.422;13.486;2023-04-03T15:31:09;2.67;;;1.77;;
9304;SDS011;4690;52.422;13.486;2023-04-03T15:33:35;3.00;;;1.70;;
9304;SDS011;4690;52.422;13.486;2023-04-03T15:36:02;2.37;;;1.60;;
9304;SDS011;4690;52.422;13.486;2023-04-03T15:38:29;2.80;;;2.00;;
9304;SDS011;4690;52.422;13.486;2023-04-03T15:40:55;4.30;;;1.97;;
9304;SDS011;4690;52.422;13.486;2023-04-03T15:43:21;2.73;;;1.50;;
9304;SDS011;4690;52.422;13.486;2023-04-03T15:45:47;1.93;;;1.60;;
9304;SDS011;4690;52.422;13.486;2023-04-03T15:48:14;4.43;;;1.70;;
9304;SDS011;4690;52.422;13.486;2023-04-03T15:50:40;4.20;;;1.67;;
9304;SDS011;4690;52.422;13.486;2023-04-03T15:53:07;2.63;;;1.67;;
9304;SDS011;4690;52.422;13.486;2023-04-03T15:55:35;3.33;;;1.73;;
9304;SDS011;4690;52.422;13.486;2023-04-03T15:58:03;3.67;;;1.60;;
9304;SDS011;4690;52.422;13.486;2023-04-03T16:00:29;3.70;;;1.50;;
9304;SDS011;4690;52.422;13.486;2023-04-03T16:03:00;6.83;;;2.00;;
9304;SDS011;4690;52.422;13.486;2023-04-03T16:05:31;3.83;;;1.77;;
9304;SDS011;4690;52.422;13.486;2023-04-03T16:07:58;2.60;;;1.73;;
9304;SDS011;4690;52.422;13.486;2023-04-03T16:10:26;3.93;;;1.83;;
9304;SDS011;4690;52.422;13.486;2023-04-03T16:12:53;3.30;;;1.97;;
9304;SDS011;4690;52.422;13.486;2023-04-03T16:15:19;2.73;;;1.90;;
9304;SDS011;4690;52.422;13.486;2023-04-03T16:17:44;3.83;;;1.93;;
9304;SDS011;4690;52.422;13.486;2023-04-03T16:20:11;3.17;;;1.83;;
9304;SDS011;4690;52.422;13.486;2023-04-03T16:22:39;4.00;;;1.97;;
9304;SDS011;4690;52.422;13.486;2023-04-03T16:25:06;2.77;;;1.90;;
9304;SDS011;4690;52.422;13.486;2023-04-03T16:27:33;3.33;;;2.03;;
9304;SDS011;4690;52.422;13.486;2023-04-03T16:29:59;3.07;;;1.50;;
9304;SDS011;4690;52.422;13.486;2023-04-03T16:32:26;2.67;;;1.77;;
9304;SDS011;4690;52.422;13.486;2023-04-03T16:34:55;6.27;;;1.83;;
9304;SDS011;4690;52.422;13.486;2023-04-03T16:37:22;2.63;;;1.40;;
9304;SDS011;4690;52.422;13.486;2023-04-03T16:39:49;3.60;;;2.00;;
9304;SDS011;4690;52.422;13.486;2023-04-03T16:42:15;3.80;;;1.90;;
9304;SDS011;4690;52.422;13.486;2023-04-03T16:44:40;2.30;;;1.53;;
9304;SDS011;4690;52.422;13.486;2023-04-03T16:47:07;4.27;;;2.20;;
9304;SDS011;4690;52.422;13.486;2023-04-03T16:49:33;2.50;;;1.80;;
9304;SDS011;4690;52.422;13.486;2023-04-03T16:52:00;3.03;;;2.07;;
9304;SDS011;4690;52.422;13.486;2023-04-03T16:54:28;3.90;;;1.97;;
9304;SDS011;4690;52.422;13.486;2023-04-03T16:56:54;3.47;;;2.13;;
9304;SDS011;4690;52.422;13.486;2023-04-03T16:59:21;2.77;;;1.80;;
9304;SDS011;4690;52.422;13.486;2023-04-03T17:01:47;2.90;;;1.70;;
9304;SDS011;4690;52.422;13.486;2023-04-03T17:04:13;6.00;;;1.90;;
9304;SDS011;4690;52.422;13.486;2023-04-03T17:06:39;3.50;;;1.73;;
9304;SDS011;4690;52.422;13.486;2023-04-03T17:09:05;2.23;;;1.80;;
9304;SDS011;4690;52.422;13.486;2023-04-03T17:11:32;3.20;;;1.80;;
9304;SDS011;4690;52.422;13.486;2023-04-03T17:13:58;3.63;;;1.80;;
9304;SDS011;4690;52.422;13.486;2023-04-03T17:16:24;3.83;;;2.17;;
9304;SDS011;4690;52.422;13.486;2023-04-03T17:18:50;3.50;;;1.97;;
9304;SDS011;4690;52.422;13.486;2023-04-03T17:21:18;3.93;;;1.73;;
9304;SDS011;4690;52.422;13.486;2023-04-03T17:23:46;3.17;;;2.00;;
9304;SDS011;4690;52.422;13.486;2023-04-03T17:26:17;2.63;;;1.90;;
9304;SDS011;4690;52.422;13.486;2023-04-03T17:28:43;3.17;;;2.20;;
9304;SDS011;4690;52.422;13.486;2023-04-03T17:31:09;4.70;;;1.90;;